Flight Track Log - Related Links

Times and Time Zones

All times are in EDT time to prevent confusion due to time zone crossing. See the N2465X flight status page for this flight to view local times or setup timezone preferences in your user account.

Time Position Orientation Groundspeed Altitude Reporting Facility
EDT Latitude Longitude Course Direction KTS MPH feet Rate Location/Type
Sun 11:13:18 AM 42.7667 -92.2047 336° Northwest 135 155 4,500  Level Minneapolis Center
Sun 11:14:19 AM 42.7933 -92.2189 339° North 131 151 4,700 146 Climbing Minneapolis Center
Sun 11:15:21 AM 42.8358 -92.2364 343° North 131 151 4,800 48 Climbing Minneapolis Center
Sun 11:16:00 AM 42.6558 -92.0695 336° Northwest  Level Estimated
Sun 11:16:23 AM 42.8819 -92.2433 354° North 135 155 4,800  Level Minneapolis Center
Sun 11:17:00 AM 42.6955 -92.0939 336° Northwest  Level Estimated
Sun 11:17:36 AM 42.9300 -92.2508 353° North 141 162 4,800  Level Minneapolis Center
Sun 11:18:00 AM 42.7353 -92.1184 336° Northwest  Level Estimated
Sun 11:18:38 AM 42.9692 -92.2558 355° North 142 163 4,800  Level Minneapolis Center
Sun 11:19:39 AM 43.0000 -92.2600 354° North 142 163 4,800  Level Minneapolis Center
Sun 11:20:41 AM 43.0469 -92.2589 North 141 162 4,800 -98 Level Minneapolis Center
Sun 11:21:42 AM 43.0872 -92.2575 North 143 165 4,600 -197 Descending Minneapolis Center
Sun 11:22:43 AM 43.1267 -92.2508 North 143 165 4,400 -146 Descending Minneapolis Center
Sun 11:23:45 AM 43.1767 -92.2472 North 146 168 4,300  Descending Minneapolis Center
Sun 11:24:46 AM 43.2178 -92.2508 356° North 148 170 4,400  Climbing Minneapolis Center
Sun 11:25:48 AM 43.2589 -92.2569 354° North 150 173 4,300 -195 Descending Minneapolis Center
Sun 11:26:49 AM 43.2894 -92.3044 311° West 150 173 4,000 -146 Descending Minneapolis Center
Sun 11:27:51 AM 43.3125 -92.3478 306° West 143 165 4,000  Level Minneapolis Center
Sun 11:28:52 AM 43.3353 -92.3886 307° West 138 159 4,000  Level Minneapolis Center
Sun 11:29:53 AM 43.3600 -92.4375 305° West 145 167 4,000 49 Level Minneapolis Center
Sun 11:30:55 AM 43.3856 -92.4767 312° West 141 162 4,100 244 Climbing Minneapolis Center
Sun 11:31:56 AM 43.4153 -92.5128 319° Northwest 132 152 4,500 341 Climbing Minneapolis Center
Sun 11:32:58 AM 43.4461 -92.5386 329° Northwest 130 150 4,800 195 Climbing Minneapolis Center
Sun 11:33:59 AM 43.4742 -92.5644 326° Northwest 126 145 4,900 98 Climbing Minneapolis Center
Sun 11:35:01 AM 43.5061 -92.5908 329° Northwest 126 145 5,000 98 Climbing Minneapolis Center
Sun 11:36:02 AM 43.5347 -92.6175 326° Northwest 126 145 5,100  Climbing Minneapolis Center
Sun 11:37:03 AM 43.5692 -92.6436 331° Northwest 133 153 5,000 -98 Descending Minneapolis Center
Sun 11:38:05 AM 43.6022 -92.6692 331° Northwest 139 160 4,900 -146 Descending Minneapolis Center
Sun 11:39:06 AM 43.6358 -92.6981 328° Northwest 143 165 4,700 -98 Descending Minneapolis Center
Sun 11:40:08 AM 43.6733 -92.7269 331° Northwest 145 167 4,700 -49 Level Minneapolis Center
Sun 11:41:09 AM 43.7039 -92.7456 336° Northwest 144 166 4,600 -98 Descending Minneapolis Center
Sun 11:42:11 AM 43.7464 -92.7672 340° North 142 163 4,500  Descending Minneapolis Center
Sun 11:43:12 AM 43.7825 -92.7889 337° Northwest 133 153 4,600 148 Climbing Minneapolis Center
Sun 11:44:13 AM 43.8167 -92.8069 339° North 132 152 4,800 49 Climbing Minneapolis Center
Sun 11:45:15 AM 43.8558 -92.8239 343° North 139 160 4,700 -49 Descending Minneapolis Center
Sun 11:46:16 AM 43.8914 -92.8458 336° Northwest 141 162 4,700 -49 Level Minneapolis Center
Sun 11:47:18 AM 43.9272 -92.8683 336° Northwest 144 166 4,600  Descending Minneapolis Center
Sun 11:48:19 AM 43.9644 -92.8922 335° Northwest 138 159 4,700 49 Climbing Minneapolis Center
Sun 11:49:21 AM 43.9994 -92.9150 335° Northwest 141 162 4,700  Level Minneapolis Center
Sun 11:50:22 AM 44.0378 -92.9392 336° Northwest 141 162 4,700 -49 Level Minneapolis Center
Sun 11:51:24 AM 44.0714 -92.9628 333° Northwest 138 159 4,600 -44 Descending Minneapolis Center
Sun 11:52:37 AM 44.1061 -92.9850 335° Northwest 139 160 4,600 -133 Level Minneapolis Center
Sun 11:53:39 AM 44.1492 -93.0164 332° Northwest 144 166 4,300 -242 Descending Minneapolis Center
Sun 11:54:41 AM 44.1847 -93.0517 325° Northwest 146 168 4,100 -98 Descending Minneapolis Center
Sun 11:55:42 AM 44.2178 -93.0828 326° Northwest 145 167 4,100 -146 Level Minneapolis Center
Sun 11:56:44 AM 44.2567 -93.1133 331° Northwest 151 174 3,800 -244 Descending Minneapolis Center
Sun 11:57:45 AM 44.2944 -93.1447 329° Northwest 160 184 3,600 -148 Descending Minneapolis Center
Sun 11:58:46 AM 44.3219 -93.1622 336° Northwest 156 180 3,500 -195 Descending Minneapolis Center
Sun 11:59:48 AM 44.3692 -93.1953 333° Northwest 159 183 3,200 -293 Descending Minneapolis Center
Sun 12:00:49 PM 44.4122 -93.2231 335° Northwest 169 194 2,900 -341 Descending Minneapolis Center
Sun 12:01:51 PM 44.4572 -93.2569 332° Northwest 152 175 2,500 -244 Descending Minneapolis Center
Sun 12:02:52 PM 44.4936 -93.2764 339° North 141 162 2,400  Descending Minneapolis Center
Sun 12:03:54 PM 44.5275 -93.2939 340° North 131 151 2,500 49 Climbing Minneapolis Center
Sun 12:04:55 PM 44.5619 -93.3036 349° North 127 146 2,500  Level Minneapolis Center
Sun 12:05:57 PM 44.5931 -93.3261 333° Northwest 126 145 2,500 49 Level Minneapolis Center
Sun 12:06:58 PM 44.6247 -93.3447 337° Northwest 122 140 2,600 -49 Climbing Minneapolis Center
Sun 12:08:00 PM 44.6550 -93.3600 340° North 115 132 2,400 -98 Descending Minneapolis Center
Sun 12:09:01 PM 44.6853 -93.3686 349° North 110 127 2,400  Level Minneapolis Center
Sun 12:10:02 PM 44.7092 -93.3819 338° Northwest 115 132 2,400 -49 Level Minneapolis Center
Sun 12:11:04 PM 44.7458 -93.4092 332° Northwest 105 121 2,300 -44 Descending Minneapolis Center
Sun 12:12:18 PM 44.7728 -93.4264 336° Northwest 106 122 2,300  Level Minneapolis Center
Sun 12:13:19 PM 44.8092 -93.4208 North 111 128 2,300 -195 Level Minneapolis Center
Sun 12:14:21 PM 44.8147 -93.4561 283° West 100 115 1,900  Descending Minneapolis Center
Sun 12:15:22 PM 44.8106 -93.4853 259° West 88 101 2,300 -146 Climbing Minneapolis Center
Sun 12:16:24 PM 44.8314 -93.5036 328° Northwest 107 123 1,600 -585 Descending Minneapolis Center
Sun 12:17:25 PM 44.8297 -93.4742 95° East 78 90 1,100 -492 Descending Minneapolis Center

Login

Don't have an account? Register now (free) for customized features, flight alerts, and more!